Terminal Aerodrome Forecast
Issued by NWS

Home | Current Version | Previous Version | Text Only | Print | Product List | Glossary On
Versions: 1 2 3 4 5 6 7 8 9 10 11 12 13 14 15
143
FTAK31 PAJN 180254 AAA
TAFAPG
TAF AMD
PAPG 180254Z 1803/1824 VRB05KT 3SM -SN BR BKN015 OVC025
      WS020/15025KT
      TEMPO 1803/1806 6SM -SNRA SCT015 OVC025
     FM180600 VRB04KT 6SM -SHRA SCT015 OVC025
     FM182100 VRB03KT P6SM VCSH SCT025 OVC050
      AMD LTD TO CLD VIS AND WIND 1806/1815=

USA.gov is the U.S. government's official web portal to all federal, state and local government web resources and services.